Time;durP1;ratioP1;P1;durP2;ratioP2;P2;SDS_P1;SDS_P2;PMS_P1;PMS_P2;Temp;Humidity;BMP_temperature;BMP_pressure;BME280_temperature;BME280_humidity;BME280_pressure;Samples;Min_cycle;Max_cycle;Signal;HPM_P1;HPM_P2
2024/03/04 00:00:04;;;;;;;;;;;15.50;37.90;;;;;;5079529;28;19942;-60
2024/03/04 00:02:32;;;;;;;;;;;15.50;37.80;;;;;;5076230;28;20015;-60
2024/03/04 00:05:00;;;;;;;;;;;15.50;37.80;;;;;;5085467;28;19932;-61
2024/03/04 00:07:29;;;;;;;;;;;15.50;37.80;;;;;;5065025;28;19927;-62
2024/03/04 00:09:58;;;;;;;;;;;15.60;37.80;;;;;;5076581;28;19928;-61
2024/03/04 00:12:26;;;;;;;;;;;15.60;37.70;;;;;;5078541;28;19932;-60
2024/03/04 00:14:54;;;;;;;;;;;15.60;38.40;;;;;;5075005;28;19928;-60
2024/03/04 00:17:23;;;;;;;;;;;15.60;37.70;;;;;;5079859;28;19928;-60
2024/03/04 00:19:52;;;;;;;;;;;15.50;37.60;;;;;;5078942;28;19989;-60
2024/03/04 00:22:20;;;;;;;;;;;15.50;37.60;;;;;;5079226;28;19931;-61
2024/03/04 00:24:50;;;;;;;;;;;15.50;37.60;;;;;;5078443;28;19934;-61
2024/03/04 00:27:18;;;;;;;;;;;15.50;37.70;;;;;;5070965;28;19927;-60
2024/03/04 00:29:46;;;;;;;;;;;15.50;37.80;;;;;;5080530;28;19927;-61
2024/03/04 00:32:14;;;;;;;;;;;15.50;37.70;;;;;;5082887;28;19931;-60
2024/03/04 00:34:42;;;;;;;;;;;15.50;37.80;;;;;;5072956;27;19938;-60
2024/03/04 00:37:11;;;;;;;;;;;15.50;37.80;;;;;;5081968;28;19932;-59
2024/03/04 00:39:40;;;;;;;;;;;15.40;37.80;;;;;;5068459;28;20018;-59
2024/03/04 00:42:09;;;;;;;;;;;15.40;37.90;;;;;;5069167;28;19934;-61
2024/03/04 00:44:37;;;;;;;;;;;15.40;37.90;;;;;;5077610;28;20614;-61
2024/03/04 00:47:05;;;;;;;;;;;15.40;38.00;;;;;;5083344;28;19943;-60
2024/03/04 00:49:35;;;;;;;;;;;15.30;37.90;;;;;;5075957;28;19939;-60
2024/03/04 00:52:04;;;;;;;;;;;15.30;38.10;;;;;;5076641;28;19931;-59
2024/03/04 00:54:32;;;;;;;;;;;15.20;38.00;;;;;;5081793;28;19928;-61
2024/03/04 00:57:00;;;;;;;;;;;15.20;38.00;;;;;;5073286;28;20047;-60
2024/03/04 00:59:30;;;;;;;;;;;15.20;38.10;;;;;;5075517;28;20438;-61
2024/03/04 01:01:58;;;;;;;;;;;15.20;38.20;;;;;;5074165;28;19997;-60
2024/03/04 01:04:26;;;;;;;;;;;15.10;38.10;;;;;;5079707;28;19931;-60
2024/03/04 01:06:54;;;;;;;;;;;15.20;38.30;;;;;;5073149;28;20012;-61
2024/03/04 01:09:22;;;;;;;;;;;15.10;38.20;;;;;;5072449;28;19974;-61
2024/03/04 01:11:51;;;;;;;;;;;15.10;38.40;;;;;;5071467;28;19993;-61
2024/03/04 01:14:19;;;;;;;;;;;15.10;38.30;;;;;;5083376;28;19928;-60
2024/03/04 01:16:50;;;;;;;;;;;15.10;38.30;;;;;;5071535;28;20864;-60
2024/03/04 01:19:19;;;;;;;;;;;15.00;38.30;;;;;;5072733;27;19931;-61
2024/03/04 01:21:47;;;;;;;;;;;15.00;38.40;;;;;;5080050;28;20404;-60
2024/03/04 01:24:17;;;;;;;;;;;14.90;38.40;;;;;;5084391;28;20019;-60
2024/03/04 01:26:45;;;;;;;;;;;14.90;38.40;;;;;;5078526;28;19928;-60
2024/03/04 01:29:13;;;;;;;;;;;14.80;38.40;;;;;;5070134;28;19928;-60
2024/03/04 01:31:42;;;;;;;;;;;14.80;38.50;;;;;;5081286;28;19934;-60
2024/03/04 01:34:12;;;;;;;;;;;14.80;38.60;;;;;;5075604;28;19934;-60
2024/03/04 01:36:41;;;;;;;;;;;14.70;38.60;;;;;;5082918;28;19928;-60
2024/03/04 01:39:10;;;;;;;;;;;14.80;38.70;;;;;;5074822;28;19928;-60
2024/03/04 01:41:38;;;;;;;;;;;14.80;38.70;;;;;;5077701;28;20028;-60
2024/03/04 01:44:06;;;;;;;;;;;14.70;38.80;;;;;;5077496;28;19997;-60
2024/03/04 01:46:35;;;;;;;;;;;14.70;38.70;;;;;;5077268;28;20874;-60
2024/03/04 01:49:03;;;;;;;;;;;14.70;38.70;;;;;;5083025;28;19928;-60
2024/03/04 01:51:33;;;;;;;;;;;14.70;38.70;;;;;;5070442;28;21287;-60
2024/03/04 01:54:03;;;;;;;;;;;14.70;38.70;;;;;;5077569;28;19938;-60
2024/03/04 01:56:31;;;;;;;;;;;14.70;38.70;;;;;;5077880;28;20023;-60
2024/03/04 01:59:00;;;;;;;;;;;14.70;38.80;;;;;;5081190;28;20004;-61
2024/03/04 02:01:28;;;;;;;;;;;14.70;38.80;;;;;;5066890;28;20433;-61
2024/03/04 02:03:56;;;;;;;;;;;14.70;38.80;;;;;;5070525;28;20354;-61
2024/03/04 02:06:25;;;;;;;;;;;14.70;38.80;;;;;;5075755;28;20053;-61
2024/03/04 02:08:55;;;;;;;;;;;14.60;38.80;;;;;;5077193;28;20263;-60
2024/03/04 02:11:23;;;;;;;;;;;14.60;39.00;;;;;;5072399;28;20006;-60
2024/03/04 02:13:52;;;;;;;;;;;14.60;38.80;;;;;;5079410;28;19935;-59
2024/03/04 02:16:20;;;;;;;;;;;14.50;38.80;;;;;;5083483;28;19943;-60
2024/03/04 02:18:48;;;;;;;;;;;14.50;38.90;;;;;;5081484;28;20792;-59
2024/03/04 02:21:19;;;;;;;;;;;14.50;39.10;;;;;;5074531;28;20743;-61
2024/03/04 02:23:48;;;;;;;;;;;14.40;39.60;;;;;;5080519;28;20019;-60
2024/03/04 02:26:17;;;;;;;;;;;14.40;39.00;;;;;;5070765;28;19936;-60
2024/03/04 02:28:45;;;;;;;;;;;14.40;39.00;;;;;;5079993;28;19956;-60
2024/03/04 02:31:14;;;;;;;;;;;14.40;39.10;;;;;;5052779;28;19935;-62
2024/03/04 02:33:44;;;;;;;;;;;14.40;39.20;;;;;;5079431;28;19974;-60
2024/03/04 02:36:12;;;;;;;;;;;14.40;39.20;;;;;;5076235;28;20454;-60
2024/03/04 02:38:40;;;;;;;;;;;14.40;39.20;;;;;;5078623;28;20018;-60
2024/03/04 02:41:10;;;;;;;;;;;14.40;39.20;;;;;;5081491;28;19939;-61
2024/03/04 02:43:39;;;;;;;;;;;14.40;39.10;;;;;;5075418;28;19932;-61
2024/03/04 02:46:07;;;;;;;;;;;14.40;39.20;;;;;;5078377;28;20451;-60
2024/03/04 02:48:35;;;;;;;;;;;14.50;39.20;;;;;;5082989;28;20375;-60
2024/03/04 02:51:03;;;;;;;;;;;14.50;39.20;;;;;;5074667;28;19933;-60
2024/03/04 02:53:31;;;;;;;;;;;14.50;39.30;;;;;;5077561;28;19932;-60
2024/03/04 02:56:00;;;;;;;;;;;14.50;39.20;;;;;;5055804;28;19940;-60
2024/03/04 02:58:29;;;;;;;;;;;14.50;39.20;;;;;;5082641;28;20582;-61
2024/03/04 03:00:58;;;;;;;;;;;14.50;39.20;;;;;;5082296;28;19932;-61
2024/03/04 03:03:26;;;;;;;;;;;14.50;39.20;;;;;;5074198;28;19932;-62
2024/03/04 03:05:54;;;;;;;;;;;14.50;39.20;;;;;;5077764;28;19936;-61
2024/03/04 03:08:22;;;;;;;;;;;14.50;39.30;;;;;;5074584;28;19932;-60
2024/03/04 03:10:50;;;;;;;;;;;14.50;39.20;;;;;;5081413;28;19955;-61
2024/03/04 03:13:18;;;;;;;;;;;14.50;39.20;;;;;;5070109;28;20036;-61
2024/03/04 03:15:48;;;;;;;;;;;14.50;39.90;;;;;;5077081;28;20009;-62
2024/03/04 03:18:17;;;;;;;;;;;14.40;39.20;;;;;;5076283;28;19932;-61
2024/03/04 03:20:45;;;;;;;;;;;14.40;39.30;;;;;;5079958;28;19971;-60
2024/03/04 03:23:13;;;;;;;;;;;14.40;39.30;;;;;;5069800;28;19932;-60
2024/03/04 03:25:42;;;;;;;;;;;14.30;39.20;;;;;;5085396;28;19980;-61
2024/03/04 03:28:10;;;;;;;;;;;14.30;39.30;;;;;;5075854;28;20617;-62
2024/03/04 03:30:40;;;;;;;;;;;14.30;39.40;;;;;;5065661;28;19927;-62
2024/03/04 03:33:11;;;;;;;;;;;14.30;39.40;;;;;;5073973;28;19934;-62
2024/03/04 03:35:38;;;;;;;;;;;14.20;39.40;;;;;;5076116;28;19935;-61
2024/03/04 03:38:06;;;;;;;;;;;14.20;39.40;;;;;;5063477;28;20018;-60
2024/03/04 03:40:34;;;;;;;;;;;14.10;39.30;;;;;;5073334;28;20038;-60
2024/03/04 03:43:03;;;;;;;;;;;14.10;39.30;;;;;;5084486;28;19968;-61
2024/03/04 03:45:31;;;;;;;;;;;14.00;39.30;;;;;;5074646;28;20025;-62
2024/03/04 03:47:59;;;;;;;;;;;14.00;39.50;;;;;;5081133;28;20073;-62
2024/03/04 03:50:29;;;;;;;;;;;13.90;39.30;;;;;;5082732;28;19928;-61
2024/03/04 03:52:57;;;;;;;;;;;13.80;39.20;;;;;;5082168;28;20026;-63
2024/03/04 03:55:25;;;;;;;;;;;13.70;39.30;;;;;;5056785;28;19938;-61
2024/03/04 03:57:53;;;;;;;;;;;13.70;39.40;;;;;;5084044;28;19935;-61
2024/03/04 04:00:25;;;;;;;;;;;13.60;39.50;;;;;;5081815;28;19931;-61
2024/03/04 04:02:58;;;;;;;;;;;13.60;39.50;;;;;;5063406;28;20090;-60
2024/03/04 04:05:26;;;;;;;;;;;13.50;39.50;;;;;;5072860;28;20070;-62
2024/03/04 04:07:57;;;;;;;;;;;13.50;39.60;;;;;;5076367;28;19935;-61
2024/03/04 04:10:25;;;;;;;;;;;13.40;39.60;;;;;;5079849;28;20405;-62
2024/03/04 04:12:54;;;;;;;;;;;13.40;39.70;;;;;;5064359;28;19932;-61
2024/03/04 04:15:22;;;;;;;;;;;13.30;39.70;;;;;;5069305;27;19932;-60
2024/03/04 04:17:53;;;;;;;;;;;13.30;39.70;;;;;;5077127;28;19938;-61
2024/03/04 04:20:21;;;;;;;;;;;13.30;39.70;;;;;;5082022;28;19931;-62
2024/03/04 04:22:50;;;;;;;;;;;13.20;39.70;;;;;;5084870;28;19984;-61
2024/03/04 04:25:20;;;;;;;;;;;13.10;39.80;;;;;;5072774;28;19934;-60
2024/03/04 04:27:49;;;;;;;;;;;13.10;39.80;;;;;;5084385;28;19932;-61
2024/03/04 04:30:17;;;;;;;;;;;13.10;39.90;;;;;;5074917;28;19932;-61
2024/03/04 04:32:45;;;;;;;;;;;13.00;39.90;;;;;;5076126;28;19936;-62
2024/03/04 04:35:13;;;;;;;;;;;13.00;39.90;;;;;;5074342;28;19928;-61
2024/03/04 04:37:42;;;;;;;;;;;13.00;40.00;;;;;;5077295;28;20389;-61
2024/03/04 04:40:11;;;;;;;;;;;13.00;40.10;;;;;;5080745;28;19976;-62
2024/03/04 04:42:41;;;;;;;;;;;13.00;40.30;;;;;;5079509;28;19938;-60
2024/03/04 04:45:09;;;;;;;;;;;13.10;40.30;;;;;;5082532;28;19932;-61
2024/03/04 04:47:37;;;;;;;;;;;13.10;40.50;;;;;;5077739;28;19993;-62
2024/03/04 04:50:06;;;;;;;;;;;13.10;40.30;;;;;;5084246;28;19932;-61
2024/03/04 04:52:34;;;;;;;;;;;13.20;40.50;;;;;;5077730;28;19939;-62
2024/03/04 04:55:02;;;;;;;;;;;13.20;40.50;;;;;;5082873;28;19936;-62
2024/03/04 04:57:30;;;;;;;;;;;13.20;40.50;;;;;;5067757;27;20761;-62
2024/03/04 05:00:00;;;;;;;;;;;13.20;40.50;;;;;;5077613;28;20183;-62
2024/03/04 05:02:28;;;;;;;;;;;13.20;40.70;;;;;;5077846;28;19928;-62
2024/03/04 05:04:56;;;;;;;;;;;13.20;40.50;;;;;;5077128;28;19939;-60
2024/03/04 05:07:26;;;;;;;;;;;13.30;40.50;;;;;;5069959;28;19931;-62
2024/03/04 05:09:55;;;;;;;;;;;13.30;40.60;;;;;;5078743;28;19928;-62
2024/03/04 05:12:24;;;;;;;;;;;13.30;40.70;;;;;;5077480;28;19972;-62
2024/03/04 05:14:52;;;;;;;;;;;13.30;40.60;;;;;;5079125;28;20718;-61
2024/03/04 05:17:21;;;;;;;;;;;13.30;40.60;;;;;;5060099;28;19923;-61
2024/03/04 05:19:49;;;;;;;;;;;13.30;40.60;;;;;;5086468;28;20018;-62
2024/03/04 05:22:18;;;;;;;;;;;13.30;40.60;;;;;;5067450;28;19924;-62
2024/03/04 05:24:46;;;;;;;;;;;13.30;40.70;;;;;;5075687;28;20413;-63
2024/03/04 05:27:14;;;;;;;;;;;13.20;40.50;;;;;;5077807;28;19942;-61
2024/03/04 05:29:43;;;;;;;;;;;13.20;40.60;;;;;;5083834;28;19924;-62
2024/03/04 05:32:11;;;;;;;;;;;13.20;40.60;;;;;;5084532;28;19924;-60
2024/03/04 05:34:42;;;;;;;;;;;13.20;40.80;;;;;;5081437;28;20034;-62
2024/03/04 05:37:11;;;;;;;;;;;13.30;40.80;;;;;;5078206;28;19924;-61
2024/03/04 05:39:39;;;;;;;;;;;13.30;40.90;;;;;;5075297;28;20420;-62
2024/03/04 05:42:08;;;;;;;;;;;13.30;40.80;;;;;;4999862;28;19932;-63
2024/03/04 05:44:37;;;;;;;;;;;13.30;41.00;;;;;;5076713;28;19938;-63
2024/03/04 05:47:07;;;;;;;;;;;13.40;40.70;;;;;;5080227;28;19932;-60
2024/03/04 05:49:37;;;;;;;;;;;13.40;40.70;;;;;;5074702;28;19985;-63
2024/03/04 05:52:07;;;;;;;;;;;13.40;40.80;;;;;;5082034;28;19931;-63
2024/03/04 05:54:35;;;;;;;;;;;13.40;40.80;;;;;;5081929;28;20983;-63
2024/03/04 05:57:04;;;;;;;;;;;13.40;40.80;;;;;;5078533;28;19993;-62
2024/03/04 05:59:32;;;;;;;;;;;13.50;40.80;;;;;;5074876;28;21158;-65
2024/03/04 06:02:00;;;;;;;;;;;13.40;40.70;;;;;;5082634;28;19939;-61
2024/03/04 06:04:28;;;;;;;;;;;13.50;40.80;;;;;;5078364;28;19935;-62
2024/03/04 06:06:56;;;;;;;;;;;13.50;40.70;;;;;;5083247;28;19924;-63
2024/03/04 06:09:27;;;;;;;;;;;13.50;40.70;;;;;;5064047;28;19975;-62
2024/03/04 06:11:55;;;;;;;;;;;13.50;40.70;;;;;;5068158;28;19963;-57
2024/03/04 06:14:28;;;;;;;;;;;13.60;40.70;;;;;;5070392;28;19928;-70
2024/03/04 06:16:56;;;;;;;;;;;13.60;40.70;;;;;;5072538;28;20046;-65
2024/03/04 06:19:24;;;;;;;;;;;13.70;40.70;;;;;;5065145;28;19928;-63
2024/03/04 06:21:54;;;;;;;;;;;13.70;40.70;;;;;;5071059;28;19962;-67
2024/03/04 06:24:39;;;;;;;;;;;13.70;40.60;;;;;;5071509;28;19951;-66
2024/03/04 06:27:07;;;;;;;;;;;13.70;40.70;;;;;;5070938;28;20417;-66
2024/03/04 06:29:36;;;;;;;;;;;13.70;40.60;;;;;;5069032;28;19937;-64
2024/03/04 06:32:05;;;;;;;;;;;13.70;40.50;;;;;;5075258;28;19928;-66
2024/03/04 06:34:33;;;;;;;;;;;13.70;40.60;;;;;;5075516;27;19962;-72
2024/03/04 06:37:01;;;;;;;;;;;13.70;40.60;;;;;;5075868;28;19936;-67
2024/03/04 06:39:30;;;;;;;;;;;13.70;40.70;;;;;;5068887;27;19932;-66
2024/03/04 06:41:59;;;;;;;;;;;13.70;40.70;;;;;;5075767;27;19941;-65
2024/03/04 06:44:27;;;;;;;;;;;13.70;40.70;;;;;;5072473;28;19972;-67
2024/03/04 06:46:55;;;;;;;;;;;13.80;40.70;;;;;;5071748;27;19936;-65
2024/03/04 06:49:24;;;;;;;;;;;13.80;40.70;;;;;;5058209;28;19932;-65
2024/03/04 06:51:53;;;;;;;;;;;13.90;40.90;;;;;;5065045;27;20551;-65
2024/03/04 06:54:21;;;;;;;;;;;14.00;40.70;;;;;;5071490;28;19932;-62
2024/03/04 06:56:49;;;;;;;;;;;14.10;40.70;;;;;;5072882;28;20384;-61
2024/03/04 06:59:19;;;;;;;;;;;14.20;40.70;;;;;;5066469;27;19951;-62
2024/03/04 07:01:47;;;;;;;;;;;14.30;40.80;;;;;;5069577;28;19986;-62
2024/03/04 07:04:15;;;;;;;;;;;14.40;40.80;;;;;;5086386;27;20019;-62
2024/03/04 07:06:43;;;;;;;;;;;14.50;40.70;;;;;;5073998;27;19928;-61
2024/03/04 07:09:12;;;;;;;;;;;14.60;40.80;;;;;;5077923;27;19968;-61
2024/03/04 07:11:40;;;;;;;;;;;14.60;40.70;;;;;;5080184;27;20036;-62
2024/03/04 07:14:08;;;;;;;;;;;14.70;40.60;;;;;;5082666;27;19939;-63
2024/03/04 07:16:38;;;;;;;;;;;14.80;40.70;;;;;;5085231;27;19928;-61
2024/03/04 07:19:06;;;;;;;;;;;14.80;40.50;;;;;;5085241;28;20034;-64
2024/03/04 07:21:35;;;;;;;;;;;14.80;40.40;;;;;;5086072;27;19986;-61
2024/03/04 07:24:03;;;;;;;;;;;14.90;40.70;;;;;;5084897;28;20409;-61
2024/03/04 07:26:32;;;;;;;;;;;14.90;40.50;;;;;;5074121;27;19978;-63
2024/03/04 07:29:00;;;;;;;;;;;14.90;40.40;;;;;;5072898;27;19933;-61
2024/03/04 07:31:28;;;;;;;;;;;15.00;40.40;;;;;;5063187;27;20026;-61
2024/03/04 07:33:58;;;;;;;;;;;15.00;40.60;;;;;;5076817;27;19928;-62
2024/03/04 07:36:26;;;;;;;;;;;15.10;40.50;;;;;;5070788;28;19931;-63
2024/03/04 07:38:54;;;;;;;;;;;15.20;40.50;;;;;;5074972;28;20402;-59
2024/03/04 07:41:26;;;;;;;;;;;15.30;40.50;;;;;;5066953;27;20041;-62
2024/03/04 07:43:55;;;;;;;;;;;15.40;40.50;;;;;;5073611;28;20001;-61
2024/03/04 07:46:23;;;;;;;;;;;15.40;40.50;;;;;;5072633;27;19963;-64
2024/03/04 07:48:51;;;;;;;;;;;15.50;40.50;;;;;;5072657;27;20444;-60
2024/03/04 07:51:21;;;;;;;;;;;15.70;40.60;;;;;;5064835;27;19935;-61
2024/03/04 07:53:49;;;;;;;;;;;15.80;40.50;;;;;;5076665;27;19936;-61
2024/03/04 07:56:17;;;;;;;;;;;15.80;40.50;;;;;;5072925;28;19924;-59
2024/03/04 07:58:46;;;;;;;;;;;16.00;40.50;;;;;;5072686;27;20043;-60
2024/03/04 08:01:14;;;;;;;;;;;16.10;40.50;;;;;;5065190;28;19928;-60
2024/03/04 08:03:42;;;;;;;;;;;16.20;40.50;;;;;;5073803;27;20332;-60
2024/03/04 08:06:10;;;;;;;;;;;16.20;40.40;;;;;;5077110;27;19928;-61
2024/03/04 08:08:39;;;;;;;;;;;16.30;40.50;;;;;;5075904;27;20478;-60
2024/03/04 08:11:07;;;;;;;;;;;16.40;40.40;;;;;;5072952;28;19928;-60
2024/03/04 08:13:36;;;;;;;;;;;16.60;40.80;;;;;;5067907;27;19938;-59
2024/03/04 08:16:05;;;;;;;;;;;17.40;41.60;;;;;;5075283;28;20499;-63
2024/03/04 08:18:33;;;;;;;;;;;18.70;41.90;;;;;;5071592;28;19924;-62
2024/03/04 08:21:01;;;;;;;;;;;20.30;41.30;;;;;;5073269;28;19932;-63
2024/03/04 08:23:29;;;;;;;;;;;21.90;40.60;;;;;;5065203;27;20455;-61
2024/03/04 08:25:58;;;;;;;;;;;23.50;39.60;;;;;;5073161;27;19939;-60
2024/03/04 08:28:26;;;;;;;;;;;24.70;38.40;;;;;;5071658;28;19939;-59
2024/03/04 08:31:04;;;;;;;;;;;25.60;37.90;;;;;;5073488;28;19936;-62
2024/03/04 08:33:32;;;;;;;;;;;26.50;37.90;;;;;;5074312;27;19932;-60
2024/03/04 08:36:00;;;;;;;;;;;27.30;37.30;;;;;;5073459;28;20367;-61
2024/03/04 08:38:28;;;;;;;;;;;28.00;37.00;;;;;;5072959;28;19935;-60
2024/03/04 08:40:57;;;;;;;;;;;28.50;36.70;;;;;;5080493;28;20407;-62
2024/03/04 08:43:26;;;;;;;;;;;28.90;36.80;;;;;;5065922;28;19985;-59
2024/03/04 08:45:54;;;;;;;;;;;29.20;36.80;;;;;;5069251;27;19932;-59
2024/03/04 08:48:23;;;;;;;;;;;29.80;36.90;;;;;;5068638;28;20035;-60
2024/03/04 08:50:51;;;;;;;;;;;30.50;36.60;;;;;;5078238;27;20021;-61
2024/03/04 08:53:19;;;;;;;;;;;31.20;36.40;;;;;;5064472;28;19950;-60
2024/03/04 08:55:47;;;;;;;;;;;31.50;35.60;;;;;;5070747;28;19927;-59
2024/03/04 08:58:15;;;;;;;;;;;31.80;35.20;;;;;;5073790;27;19933;-59
2024/03/04 09:00:45;;;;;;;;;;;31.90;35.20;;;;;;5072500;27;19935;-60
2024/03/04 09:03:13;;;;;;;;;;;32.30;35.30;;;;;;5065480;28;19932;-63
2024/03/04 09:05:44;;;;;;;;;;;32.50;35.10;;;;;;5072936;28;19928;-60
2024/03/04 09:08:12;;;;;;;;;;;32.80;35.10;;;;;;5069765;28;20438;-58
2024/03/04 09:10:40;;;;;;;;;;;33.10;35.10;;;;;;5072253;27;20463;-60
2024/03/04 09:13:09;;;;;;;;;;;33.40;35.00;;;;;;5071598;27;20672;-62
2024/03/04 09:15:37;;;;;;;;;;;33.70;34.80;;;;;;5070080;28;20037;-62
2024/03/04 09:18:06;;;;;;;;;;;33.80;34.40;;;;;;5071790;28;20129;-63
2024/03/04 09:20:34;;;;;;;;;;;33.80;34.50;;;;;;5074639;27;19927;-60
2024/03/04 09:23:03;;;;;;;;;;;33.90;34.80;;;;;;5079138;28;20006;-59
2024/03/04 09:25:31;;;;;;;;;;;34.00;34.60;;;;;;5067914;28;20117;-58
2024/03/04 09:28:00;;;;;;;;;;;34.10;34.40;;;;;;5083314;28;19996;-58
2024/03/04 09:30:28;;;;;;;;;;;34.20;34.30;;;;;;5081028;27;20370;-62
2024/03/04 09:32:56;;;;;;;;;;;34.50;34.50;;;;;;5080933;28;20660;-57
2024/03/04 09:35:26;;;;;;;;;;;34.60;34.10;;;;;;5074753;28;20348;-59
2024/03/04 09:37:54;;;;;;;;;;;34.30;33.70;;;;;;5083204;28;20023;-60
2024/03/04 09:40:23;;;;;;;;;;;34.30;34.20;;;;;;5075048;28;19932;-59
2024/03/04 09:42:51;;;;;;;;;;;34.30;34.30;;;;;;5071808;28;19995;-59
2024/03/04 09:45:20;;;;;;;;;;;34.40;34.20;;;;;;5064018;28;20679;-59
2024/03/04 09:47:49;;;;;;;;;;;34.40;34.10;;;;;;5070136;28;20314;-57
2024/03/04 09:50:18;;;;;;;;;;;34.20;33.90;;;;;;5076985;28;19928;-58
2024/03/04 09:52:49;;;;;;;;;;;33.80;33.70;;;;;;5075678;28;20059;-58
2024/03/04 09:55:17;;;;;;;;;;;33.50;34.10;;;;;;5062721;28;20499;-58
2024/03/04 09:57:45;;;;;;;;;;;33.40;34.40;;;;;;5080992;28;20013;-58
2024/03/04 10:00:14;;;;;;;;;;;33.40;34.60;;;;;;5083446;28;19939;-59
2024/03/04 10:02:43;;;;;;;;;;;33.30;34.40;;;;;;5081753;27;19932;-63
2024/03/04 10:05:12;;;;;;;;;;;33.30;34.20;;;;;;5073595;27;19932;-55
2024/03/04 10:07:40;;;;;;;;;;;33.30;34.50;;;;;;5073375;27;20149;-54
2024/03/04 10:10:12;;;;;;;;;;;33.40;34.70;;;;;;5078987;27;19928;-59
2024/03/04 10:12:40;;;;;;;;;;;33.50;34.50;;;;;;5075688;28;20401;-60
2024/03/04 10:15:10;;;;;;;;;;;33.80;34.30;;;;;;5077215;28;20011;-61
2024/03/04 10:17:39;;;;;;;;;;;34.00;34.10;;;;;;5073572;27;20011;-60
2024/03/04 10:20:08;;;;;;;;;;;34.10;34.00;;;;;;5073659;28;19948;-61
2024/03/04 10:22:36;;;;;;;;;;;34.20;34.00;;;;;;5073744;27;19928;-60
2024/03/04 10:25:05;;;;;;;;;;;34.40;34.00;;;;;;5076879;27;19931;-60
2024/03/04 10:27:35;;;;;;;;;;;34.50;33.60;;;;;;5067362;27;20803;-59
2024/03/04 10:30:10;;;;;;;;;;;34.50;33.60;;;;;;5077212;27;19932;-60
2024/03/04 10:32:39;;;;;;;;;;;34.40;33.30;;;;;;5078574;28;20014;-56
2024/03/04 10:35:08;;;;;;;;;;;34.20;33.20;;;;;;5081892;27;19928;-62
2024/03/04 10:37:36;;;;;;;;;;;34.00;33.20;;;;;;5082146;27;22182;-61
2024/03/04 10:40:05;;;;;;;;;;;33.90;33.20;;;;;;5085227;27;20049;-54
2024/03/04 10:42:34;;;;;;;;;;;33.50;32.60;;;;;;5081350;27;20005;-54
2024/03/04 10:45:04;;;;;;;;;;;33.00;32.80;;;;;;5079276;27;19947;-58
2024/03/04 10:47:33;;;;;;;;;;;32.80;33.00;;;;;;5078246;28;19924;-59
2024/03/04 10:50:02;;;;;;;;;;;32.60;33.20;;;;;;5062638;28;19962;-59
2024/03/04 10:52:30;;;;;;;;;;;32.50;33.20;;;;;;5078550;27;20039;-58
2024/03/04 10:55:00;;;;;;;;;;;32.40;33.20;;;;;;5072587;27;20405;-59
2024/03/04 10:57:29;;;;;;;;;;;32.20;33.70;;;;;;5068520;27;19943;-60
2024/03/04 10:59:59;;;;;;;;;;;31.80;33.00;;;;;;5075015;28;19932;-59
2024/03/04 11:02:38;;;;;;;;;;;31.60;33.20;;;;;;5071769;28;20342;-59
2024/03/04 11:05:07;;;;;;;;;;;31.50;33.30;;;;;;5074357;28;19935;-59
2024/03/04 11:07:38;;;;;;;;;;;31.20;33.00;;;;;;5067243;27;19935;-60
2024/03/04 11:10:11;;;;;;;;;;;30.60;33.00;;;;;;5074565;27;20735;-63
2024/03/04 11:12:40;;;;;;;;;;;30.20;33.40;;;;;;5075586;27;20033;-59
2024/03/04 11:15:11;;;;;;;;;;;30.00;33.70;;;;;;5074768;28;19977;-59
2024/03/04 11:17:42;;;;;;;;;;;29.70;33.90;;;;;;5076841;27;19967;-64
2024/03/04 11:20:14;;;;;;;;;;;29.30;34.20;;;;;;5078397;27;19932;-63
2024/03/04 11:22:43;;;;;;;;;;;28.90;34.40;;;;;;5079732;27;19932;-61
2024/03/04 11:25:12;;;;;;;;;;;28.40;34.70;;;;;;5084638;27;19938;-63
2024/03/04 11:27:41;;;;;;;;;;;28.00;35.30;;;;;;5076827;27;19935;-61
2024/03/04 11:30:11;;;;;;;;;;;27.30;35.40;;;;;;5082852;28;19928;-62
2024/03/04 11:32:39;;;;;;;;;;;26.40;35.50;;;;;;5079253;27;19931;-63
2024/03/04 11:35:10;;;;;;;;;;;25.50;36.30;;;;;;5072785;28;19932;-63
2024/03/04 11:37:49;;;;;;;;;;;24.90;37.10;;;;;;5070851;27;20637;-62
2024/03/04 11:40:18;;;;;;;;;;;24.40;37.80;;;;;;5074758;28;19951;-59
2024/03/04 11:42:47;;;;;;;;;;;24.10;38.30;;;;;;5073152;28;19928;-63
2024/03/04 11:45:20;;;;;;;;;;;23.90;38.60;;;;;;5066878;27;19932;-64
2024/03/04 11:47:51;;;;;;;;;;;23.80;39.00;;;;;;5072645;27;19971;-62
2024/03/04 11:50:38;;;;;;;;;;;23.60;38.90;;;;;;5072047;27;19928;-60
2024/03/04 11:53:19;;;;;;;;;;;23.40;39.00;;;;;;5073393;28;19963;-61
2024/03/04 11:55:48;;;;;;;;;;;23.20;39.20;;;;;;5071823;28;19928;-61
2024/03/04 11:58:18;;;;;;;;;;;23.00;39.30;;;;;;5074433;27;19932;-66
2024/03/04 12:00:48;;;;;;;;;;;22.90;39.40;;;;;;5073688;27;19931;-62
2024/03/04 12:03:16;;;;;;;;;;;22.80;39.40;;;;;;5072525;27;19932;-65
2024/03/04 12:05:46;;;;;;;;;;;22.70;39.50;;;;;;5076821;28;20012;-63
2024/03/04 12:08:14;;;;;;;;;;;22.70;39.30;;;;;;5076532;28;20045;-61
2024/03/04 12:11:02;;;;;;;;;;;22.50;39.30;;;;;;5075271;28;20366;-63
2024/03/04 12:13:34;;;;;;;;;;;22.40;39.50;;;;;;5074051;28;20486;-63
2024/03/04 12:16:04;;;;;;;;;;;22.20;39.40;;;;;;5077963;28;20780;-61
2024/03/04 12:18:32;;;;;;;;;;;22.10;39.60;;;;;;5077441;28;19993;-64
2024/03/04 12:21:04;;;;;;;;;;;22.00;39.70;;;;;;5077472;28;19928;-61
2024/03/04 12:23:32;;;;;;;;;;;22.10;39.80;;;;;;5071485;28;19924;-63
2024/03/04 12:26:12;;;;;;;;;;;22.10;39.60;;;;;;5071911;28;19954;-61
2024/03/04 12:28:40;;;;;;;;;;;21.90;39.50;;;;;;5072805;27;19932;-61
2024/03/04 12:31:12;;;;;;;;;;;21.80;39.70;;;;;;5056998;28;20333;-63
2024/03/04 12:33:41;;;;;;;;;;;21.60;39.60;;;;;;5069238;28;19932;-61
2024/03/04 12:36:10;;;;;;;;;;;21.40;39.80;;;;;;5077334;28;20128;-60
2024/03/04 12:38:38;;;;;;;;;;;21.20;39.80;;;;;;5075492;28;20030;-60
2024/03/04 12:41:17;;;;;;;;;;;21.10;40.10;;;;;;5082006;28;19938;-62
2024/03/04 12:43:48;;;;;;;;;;;21.10;40.30;;;;;;5086025;28;19932;-66
2024/03/04 12:46:18;;;;;;;;;;;21.20;40.50;;;;;;5079779;28;19943;-63
2024/03/04 12:48:46;;;;;;;;;;;21.30;40.50;;;;;;5078654;28;19928;-60
2024/03/04 12:51:16;;;;;;;;;;;21.50;40.40;;;;;;5055762;27;19928;-62
2024/03/04 12:53:45;;;;;;;;;;;21.60;40.40;;;;;;5081642;28;19956;-61
2024/03/04 12:56:13;;;;;;;;;;;21.80;40.30;;;;;;5064621;28;20772;-60
2024/03/04 12:58:41;;;;;;;;;;;21.80;40.00;;;;;;5085568;28;20022;-67
2024/03/04 13:01:14;;;;;;;;;;;21.90;40.00;;;;;;5080673;28;19928;-61
2024/03/04 13:03:44;;;;;;;;;;;21.90;39.90;;;;;;5082615;28;19932;-59
2024/03/04 13:06:13;;;;;;;;;;;21.90;39.90;;;;;;5082750;28;19932;-62
2024/03/04 13:08:42;;;;;;;;;;;21.80;39.70;;;;;;5083296;27;20906;-61
2024/03/04 13:11:10;;;;;;;;;;;21.80;39.80;;;;;;5074189;28;19939;-60
2024/03/04 13:13:39;;;;;;;;;;;21.80;39.90;;;;;;5076224;28;19934;-55
2024/03/04 13:16:08;;;;;;;;;;;21.80;40.00;;;;;;5083377;27;19959;-60
2024/03/04 13:18:37;;;;;;;;;;;21.90;40.00;;;;;;5071134;28;20019;-60
2024/03/04 13:21:06;;;;;;;;;;;22.00;40.10;;;;;;5079782;28;19943;-64
2024/03/04 13:23:34;;;;;;;;;;;22.20;40.10;;;;;;5073572;28;19939;-64
2024/03/04 13:26:03;;;;;;;;;;;22.20;39.80;;;;;;5075538;28;20325;-61
2024/03/04 13:28:31;;;;;;;;;;;22.20;39.70;;;;;;5076488;27;20595;-62
2024/03/04 13:30:59;;;;;;;;;;;22.20;39.60;;;;;;5061123;28;19928;-63
2024/03/04 13:33:27;;;;;;;;;;;22.20;39.70;;;;;;5051258;28;19939;-63
2024/03/04 13:35:56;;;;;;;;;;;22.10;39.80;;;;;;5076637;28;20328;-62
2024/03/04 13:38:31;;;;;;;;;;;22.00;39.70;;;;;;5080509;28;19954;-62
2024/03/04 13:41:00;;;;;;;;;;;22.10;39.90;;;;;;5072302;28;19932;-60
2024/03/04 13:43:28;;;;;;;;;;;22.00;39.80;;;;;;5065089;28;19939;-61
2024/03/04 13:45:56;;;;;;;;;;;21.90;39.80;;;;;;5071023;28;20496;-61
2024/03/04 13:48:24;;;;;;;;;;;21.90;40.00;;;;;;5071073;28;19928;-61
2024/03/04 13:50:52;;;;;;;;;;;21.80;39.90;;;;;;5072204;28;20468;-64
2024/03/04 13:53:20;;;;;;;;;;;21.70;39.70;;;;;;5064210;28;19932;-61
2024/03/04 13:55:51;;;;;;;;;;;21.60;39.90;;;;;;5069936;28;20725;-61
2024/03/04 13:58:19;;;;;;;;;;;21.50;39.90;;;;;;5059384;28;19928;-62
2024/03/04 14:00:47;;;;;;;;;;;21.40;39.90;;;;;;5073532;28;19935;-66
2024/03/04 14:03:15;;;;;;;;;;;21.30;40.10;;;;;;5064489;28;20310;-63
2024/03/04 14:05:44;;;;;;;;;;;21.30;40.00;;;;;;5072215;28;19940;-62
2024/03/04 14:08:12;;;;;;;;;;;21.20;40.10;;;;;;5069629;28;20452;-62
2024/03/04 14:10:41;;;;;;;;;;;21.10;40.10;;;;;;5073485;28;19928;-61
2024/03/04 14:13:13;;;;;;;;;;;21.00;40.10;;;;;;5068911;28;20362;-61
2024/03/04 14:15:46;;;;;;;;;;;20.80;40.20;;;;;;5067853;28;19935;-60
2024/03/04 14:18:14;;;;;;;;;;;20.70;40.40;;;;;;5073852;28;19932;-65
2024/03/04 14:20:42;;;;;;;;;;;20.80;40.60;;;;;;5073131;28;19931;-61
2024/03/04 14:23:10;;;;;;;;;;;20.80;40.40;;;;;;5071037;28;19939;-60
2024/03/04 14:25:39;;;;;;;;;;;20.80;40.40;;;;;;5066392;28;19932;-62